sensor_id;sensor_type;location;lat;lon;timestamp;P1;durP1;ratioP1;P2;durP2;ratioP2
77826;SDS011;67016;42.508;25.678;2023-04-03T00:01:06;2.42;;;0.93;;
77826;SDS011;67016;42.508;25.678;2023-04-03T00:03:32;1.48;;;0.90;;
77826;SDS011;67016;42.508;25.678;2023-04-03T00:05:58;1.10;;;1.00;;
77826;SDS011;67016;42.508;25.678;2023-04-03T00:08:24;1.58;;;1.15;;
77826;SDS011;67016;42.508;25.678;2023-04-03T00:10:49;1.85;;;0.88;;
77826;SDS011;67016;42.508;25.678;2023-04-03T00:13:15;1.40;;;1.02;;
77826;SDS011;67016;42.508;25.678;2023-04-03T00:15:41;1.10;;;0.90;;
77826;SDS011;67016;42.508;25.678;2023-04-03T00:18:07;3.63;;;1.35;;
77826;SDS011;67016;42.508;25.678;2023-04-03T00:20:33;1.20;;;0.98;;
77826;SDS011;67016;42.508;25.678;2023-04-03T00:22:59;1.25;;;1.08;;
77826;SDS011;67016;42.508;25.678;2023-04-03T00:25:25;1.17;;;1.00;;
77826;SDS011;67016;42.508;25.678;2023-04-03T00:27:51;6.22;;;1.33;;
77826;SDS011;67016;42.508;25.678;2023-04-03T00:30:17;1.60;;;0.93;;
77826;SDS011;67016;42.508;25.678;2023-04-03T00:32:44;2.42;;;1.20;;
77826;SDS011;67016;42.508;25.678;2023-04-03T00:35:10;1.10;;;1.02;;
77826;SDS011;67016;42.508;25.678;2023-04-03T00:37:36;2.55;;;1.10;;
77826;SDS011;67016;42.508;25.678;2023-04-03T00:40:02;2.28;;;0.95;;
77826;SDS011;67016;42.508;25.678;2023-04-03T00:42:29;1.42;;;1.00;;
77826;SDS011;67016;42.508;25.678;2023-04-03T00:47:21;1.83;;;0.93;;
77826;SDS011;67016;42.508;25.678;2023-04-03T00:49:46;2.75;;;1.42;;
77826;SDS011;67016;42.508;25.678;2023-04-03T00:52:14;1.10;;;1.00;;
77826;SDS011;67016;42.508;25.678;2023-04-03T00:54:42;2.83;;;1.50;;
77826;SDS011;67016;42.508;25.678;2023-04-03T00:57:08;2.65;;;1.00;;
77826;SDS011;67016;42.508;25.678;2023-04-03T00:59:35;1.50;;;0.93;;
77826;SDS011;67016;42.508;25.678;2023-04-03T01:02:05;0.98;;;0.90;;
77826;SDS011;67016;42.508;25.678;2023-04-03T01:04:32;1.73;;;1.02;;
77826;SDS011;67016;42.508;25.678;2023-04-03T01:07:07;1.10;;;1.00;;
77826;SDS011;67016;42.508;25.678;2023-04-03T01:09:34;1.98;;;1.02;;
77826;SDS011;67016;42.508;25.678;2023-04-03T01:12:17;1.42;;;1.00;;
77826;SDS011;67016;42.508;25.678;2023-04-03T01:14:48;2.30;;;1.20;;
77826;SDS011;67016;42.508;25.678;2023-04-03T01:23:04;1.60;;;1.30;;
77826;SDS011;67016;42.508;25.678;2023-04-03T01:25:37;4.00;;;0.90;;
77826;SDS011;67016;42.508;25.678;2023-04-03T01:28:03;1.00;;;0.90;;
77826;SDS011;67016;42.508;25.678;2023-04-03T01:30:32;1.10;;;1.00;;
77826;SDS011;67016;42.508;25.678;2023-04-03T01:33:00;1.00;;;0.90;;
77826;SDS011;67016;42.508;25.678;2023-04-03T01:35:25;1.00;;;0.90;;
77826;SDS011;67016;42.508;25.678;2023-04-03T01:37:51;0.75;;;0.70;;
77826;SDS011;67016;42.508;25.678;2023-04-03T01:40:16;2.05;;;1.02;;
77826;SDS011;67016;42.508;25.678;2023-04-03T01:42:42;2.00;;;0.90;;
77826;SDS011;67016;42.508;25.678;2023-04-03T01:45:08;1.10;;;0.85;;
77826;SDS011;67016;42.508;25.678;2023-04-03T01:47:34;1.58;;;1.15;;
77826;SDS011;67016;42.508;25.678;2023-04-03T01:49:59;2.42;;;0.90;;
77826;SDS011;67016;42.508;25.678;2023-04-03T01:52:25;1.25;;;1.00;;
77826;SDS011;67016;42.508;25.678;2023-04-03T01:54:51;1.40;;;1.00;;
77826;SDS011;67016;42.508;25.678;2023-04-03T01:57:17;1.27;;;0.90;;
77826;SDS011;67016;42.508;25.678;2023-04-03T01:59:44;1.13;;;1.02;;
77826;SDS011;67016;42.508;25.678;2023-04-03T02:02:10;2.35;;;1.40;;
77826;SDS011;67016;42.508;25.678;2023-04-03T02:04:37;1.30;;;1.00;;
77826;SDS011;67016;42.508;25.678;2023-04-03T02:07:03;1.35;;;1.23;;
77826;SDS011;67016;42.508;25.678;2023-04-03T02:09:28;1.58;;;1.08;;
77826;SDS011;67016;42.508;25.678;2023-04-03T02:11:54;1.17;;;1.02;;
77826;SDS011;67016;42.508;25.678;2023-04-03T02:14:20;0.88;;;0.88;;
77826;SDS011;67016;42.508;25.678;2023-04-03T02:16:47;2.97;;;1.20;;
77826;SDS011;67016;42.508;25.678;2023-04-03T02:19:12;3.03;;;0.90;;
77826;SDS011;67016;42.508;25.678;2023-04-03T02:21:38;1.00;;;0.90;;
77826;SDS011;67016;42.508;25.678;2023-04-03T02:24:04;1.58;;;1.00;;
77826;SDS011;67016;42.508;25.678;2023-04-03T02:26:30;1.38;;;1.10;;
77826;SDS011;67016;42.508;25.678;2023-04-03T02:28:56;0.90;;;0.90;;
77826;SDS011;67016;42.508;25.678;2023-04-03T02:31:21;3.22;;;1.27;;
77826;SDS011;67016;42.508;25.678;2023-04-03T02:33:47;1.10;;;1.00;;
77826;SDS011;67016;42.508;25.678;2023-04-03T02:36:13;2.72;;;1.05;;
77826;SDS011;67016;42.508;25.678;2023-04-03T02:38:39;1.70;;;0.90;;
77826;SDS011;67016;42.508;25.678;2023-04-03T02:41:07;3.50;;;1.08;;
77826;SDS011;67016;42.508;25.678;2023-04-03T02:43:34;1.58;;;1.00;;
77826;SDS011;67016;42.508;25.678;2023-04-03T02:46:00;1.30;;;1.20;;
77826;SDS011;67016;42.508;25.678;2023-04-03T02:48:25;1.20;;;1.10;;
77826;SDS011;67016;42.508;25.678;2023-04-03T02:50:52;1.83;;;1.10;;
77826;SDS011;67016;42.508;25.678;2023-04-03T02:53:17;3.70;;;1.00;;
77826;SDS011;67016;42.508;25.678;2023-04-03T02:55:44;2.10;;;1.00;;
77826;SDS011;67016;42.508;25.678;2023-04-03T02:58:10;0.80;;;0.80;;
77826;SDS011;67016;42.508;25.678;2023-04-03T03:00:36;1.25;;;1.05;;
77826;SDS011;67016;42.508;25.678;2023-04-03T03:03:02;2.53;;;1.30;;
77826;SDS011;67016;42.508;25.678;2023-04-03T03:05:29;1.67;;;0.82;;
77826;SDS011;67016;42.508;25.678;2023-04-03T03:07:55;1.90;;;1.30;;
77826;SDS011;67016;42.508;25.678;2023-04-03T03:10:21;1.10;;;0.90;;
77826;SDS011;67016;42.508;25.678;2023-04-03T03:12:47;1.00;;;0.85;;
77826;SDS011;67016;42.508;25.678;2023-04-03T03:15:12;2.20;;;1.33;;
77826;SDS011;67016;42.508;25.678;2023-04-03T03:17:38;2.00;;;1.25;;
77826;SDS011;67016;42.508;25.678;2023-04-03T03:20:04;1.27;;;1.10;;
77826;SDS011;67016;42.508;25.678;2023-04-03T03:22:32;1.15;;;0.95;;
77826;SDS011;67016;42.508;25.678;2023-04-03T03:24:58;2.08;;;1.40;;
77826;SDS011;67016;42.508;25.678;2023-04-03T03:27:24;2.60;;;1.40;;
77826;SDS011;67016;42.508;25.678;2023-04-03T03:29:50;1.02;;;0.98;;
77826;SDS011;67016;42.508;25.678;2023-04-03T03:32:15;4.32;;;1.25;;
77826;SDS011;67016;42.508;25.678;2023-04-03T03:34:42;0.80;;;0.80;;
77826;SDS011;67016;42.508;25.678;2023-04-03T03:37:07;2.33;;;1.10;;
77826;SDS011;67016;42.508;25.678;2023-04-03T03:39:33;1.45;;;0.80;;
77826;SDS011;67016;42.508;25.678;2023-04-03T03:41:59;1.30;;;1.20;;
77826;SDS011;67016;42.508;25.678;2023-04-03T03:44:25;1.80;;;1.10;;
77826;SDS011;67016;42.508;25.678;2023-04-03T03:46:51;1.08;;;1.00;;
77826;SDS011;67016;42.508;25.678;2023-04-03T03:49:16;0.93;;;0.90;;
77826;SDS011;67016;42.508;25.678;2023-04-03T03:51:42;1.48;;;1.17;;
77826;SDS011;67016;42.508;25.678;2023-04-03T03:54:07;1.85;;;1.20;;
77826;SDS011;67016;42.508;25.678;2023-04-03T03:56:34;1.50;;;1.40;;
77826;SDS011;67016;42.508;25.678;2023-04-03T03:59:00;1.90;;;1.50;;
77826;SDS011;67016;42.508;25.678;2023-04-03T04:01:26;1.60;;;1.25;;
77826;SDS011;67016;42.508;25.678;2023-04-03T04:03:51;1.25;;;0.93;;
77826;SDS011;67016;42.508;25.678;2023-04-03T04:06:19;2.13;;;1.50;;
77826;SDS011;67016;42.508;25.678;2023-04-03T04:08:44;3.75;;;1.38;;
77826;SDS011;67016;42.508;25.678;2023-04-03T04:11:10;8.80;;;1.30;;
77826;SDS011;67016;42.508;25.678;2023-04-03T04:13:36;1.90;;;1.10;;
77826;SDS011;67016;42.508;25.678;2023-04-03T04:16:01;3.08;;;1.30;;
77826;SDS011;67016;42.508;25.678;2023-04-03T04:18:27;5.85;;;2.88;;
77826;SDS011;67016;42.508;25.678;2023-04-03T04:20:52;2.88;;;1.70;;
77826;SDS011;67016;42.508;25.678;2023-04-03T04:23:18;7.50;;;1.63;;
77826;SDS011;67016;42.508;25.678;2023-04-03T04:25:44;2.67;;;1.42;;
77826;SDS011;67016;42.508;25.678;2023-04-03T04:28:11;1.83;;;1.60;;
77826;SDS011;67016;42.508;25.678;2023-04-03T04:30:37;2.67;;;1.02;;
77826;SDS011;67016;42.508;25.678;2023-04-03T04:33:03;1.13;;;1.02;;
77826;SDS011;67016;42.508;25.678;2023-04-03T04:35:28;2.92;;;1.40;;
77826;SDS011;67016;42.508;25.678;2023-04-03T04:37:54;1.60;;;1.50;;
77826;SDS011;67016;42.508;25.678;2023-04-03T04:40:20;1.52;;;0.80;;
77826;SDS011;67016;42.508;25.678;2023-04-03T04:42:46;1.65;;;1.00;;
77826;SDS011;67016;42.508;25.678;2023-04-03T04:45:12;1.67;;;0.95;;
77826;SDS011;67016;42.508;25.678;2023-04-03T04:47:39;5.15;;;1.13;;
77826;SDS011;67016;42.508;25.678;2023-04-03T04:50:05;0.98;;;0.85;;
77826;SDS011;67016;42.508;25.678;2023-04-03T04:52:31;2.13;;;1.10;;
77826;SDS011;67016;42.508;25.678;2023-04-03T04:54:57;2.15;;;1.02;;
77826;SDS011;67016;42.508;25.678;2023-04-03T04:57:23;1.20;;;1.10;;
77826;SDS011;67016;42.508;25.678;2023-04-03T04:59:48;2.20;;;1.00;;
77826;SDS011;67016;42.508;25.678;2023-04-03T05:02:14;3.20;;;1.10;;
77826;SDS011;67016;42.508;25.678;2023-04-03T05:04:40;2.08;;;0.88;;
77826;SDS011;67016;42.508;25.678;2023-04-03T05:07:05;2.97;;;1.20;;
77826;SDS011;67016;42.508;25.678;2023-04-03T05:09:31;1.50;;;1.00;;
77826;SDS011;67016;42.508;25.678;2023-04-03T05:11:57;1.92;;;0.95;;
77826;SDS011;67016;42.508;25.678;2023-04-03T05:14:22;0.90;;;0.90;;
77826;SDS011;67016;42.508;25.678;2023-04-03T05:16:48;0.80;;;0.80;;
77826;SDS011;67016;42.508;25.678;2023-04-03T05:19:17;0.93;;;0.80;;
77826;SDS011;67016;42.508;25.678;2023-04-03T05:21:43;1.60;;;1.02;;
77826;SDS011;67016;42.508;25.678;2023-04-03T05:24:09;1.67;;;0.90;;
77826;SDS011;67016;42.508;25.678;2023-04-03T05:26:35;0.80;;;0.80;;
77826;SDS011;67016;42.508;25.678;2023-04-03T05:29:00;0.80;;;0.80;;
77826;SDS011;67016;42.508;25.678;2023-04-03T05:31:26;0.80;;;0.80;;
77826;SDS011;67016;42.508;25.678;2023-04-03T05:33:54;1.02;;;0.93;;
77826;SDS011;67016;42.508;25.678;2023-04-03T05:36:20;0.85;;;0.85;;
77826;SDS011;67016;42.508;25.678;2023-04-03T05:38:46;1.40;;;0.90;;
77826;SDS011;67016;42.508;25.678;2023-04-03T05:41:12;1.58;;;1.05;;
77826;SDS011;67016;42.508;25.678;2023-04-03T05:43:39;0.98;;;0.80;;
77826;SDS011;67016;42.508;25.678;2023-04-03T05:46:12;1.38;;;1.00;;
77826;SDS011;67016;42.508;25.678;2023-04-03T05:48:39;0.75;;;0.75;;
77826;SDS011;67016;42.508;25.678;2023-04-03T05:51:05;0.93;;;0.70;;
77826;SDS011;67016;42.508;25.678;2023-04-03T05:53:33;2.70;;;1.10;;
77826;SDS011;67016;42.508;25.678;2023-04-03T05:56:02;3.80;;;1.10;;
77826;SDS011;67016;42.508;25.678;2023-04-03T05:58:28;0.82;;;0.80;;
77826;SDS011;67016;42.508;25.678;2023-04-03T06:00:53;0.98;;;0.85;;
77826;SDS011;67016;42.508;25.678;2023-04-03T06:03:19;0.70;;;0.70;;
77826;SDS011;67016;42.508;25.678;2023-04-03T06:05:45;3.25;;;1.00;;
77826;SDS011;67016;42.508;25.678;2023-04-03T06:08:11;13.27;;;1.55;;
77826;SDS011;67016;42.508;25.678;2023-04-03T06:10:37;5.70;;;1.65;;
77826;SDS011;67016;42.508;25.678;2023-04-03T06:13:03;1.88;;;0.93;;
77826;SDS011;67016;42.508;25.678;2023-04-03T06:15:29;1.00;;;0.88;;
77826;SDS011;67016;42.508;25.678;2023-04-03T06:17:55;3.17;;;1.08;;
77826;SDS011;67016;42.508;25.678;2023-04-03T06:20:21;0.80;;;0.80;;
77826;SDS011;67016;42.508;25.678;2023-04-03T06:22:47;1.65;;;0.80;;
77826;SDS011;67016;42.508;25.678;2023-04-03T06:25:13;1.33;;;1.00;;
77826;SDS011;67016;42.508;25.678;2023-04-03T06:27:39;1.25;;;0.90;;
77826;SDS011;67016;42.508;25.678;2023-04-03T06:30:05;2.38;;;0.80;;
77826;SDS011;67016;42.508;25.678;2023-04-03T06:32:32;0.80;;;0.80;;
77826;SDS011;67016;42.508;25.678;2023-04-03T06:34:57;1.05;;;0.95;;
77826;SDS011;67016;42.508;25.678;2023-04-03T06:37:23;1.92;;;0.80;;
77826;SDS011;67016;42.508;25.678;2023-04-03T06:39:51;1.02;;;0.80;;
77826;SDS011;67016;42.508;25.678;2023-04-03T06:42:17;1.45;;;1.10;;
77826;SDS011;67016;42.508;25.678;2023-04-03T06:44:43;3.42;;;0.80;;
77826;SDS011;67016;42.508;25.678;2023-04-03T06:47:15;1.73;;;0.77;;
77826;SDS011;67016;42.508;25.678;2023-04-03T06:49:41;1.45;;;0.95;;
77826;SDS011;67016;42.508;25.678;2023-04-03T06:52:07;1.50;;;1.10;;
77826;SDS011;67016;42.508;25.678;2023-04-03T06:54:33;0.85;;;0.65;;
77826;SDS011;67016;42.508;25.678;2023-04-03T06:56:59;1.42;;;0.88;;
77826;SDS011;67016;42.508;25.678;2023-04-03T06:59:25;3.03;;;1.90;;
77826;SDS011;67016;42.508;25.678;2023-04-03T07:01:51;0.88;;;0.80;;
77826;SDS011;67016;42.508;25.678;2023-04-03T07:04:17;0.95;;;0.80;;
77826;SDS011;67016;42.508;25.678;2023-04-03T07:06:45;1.48;;;1.33;;
77826;SDS011;67016;42.508;25.678;2023-04-03T07:09:12;1.17;;;1.00;;
77826;SDS011;67016;42.508;25.678;2023-04-03T07:11:39;1.48;;;0.98;;
77826;SDS011;67016;42.508;25.678;2023-04-03T07:14:04;1.00;;;0.90;;
77826;SDS011;67016;42.508;25.678;2023-04-03T07:16:31;2.50;;;1.98;;
77826;SDS011;67016;42.508;25.678;2023-04-03T07:18:57;1.88;;;1.13;;
77826;SDS011;67016;42.508;25.678;2023-04-03T07:21:23;3.10;;;1.00;;
77826;SDS011;67016;42.508;25.678;2023-04-03T07:23:49;3.15;;;0.93;;
77826;SDS011;67016;42.508;25.678;2023-04-03T07:26:14;4.13;;;2.35;;
77826;SDS011;67016;42.508;25.678;2023-04-03T07:28:40;1.30;;;1.20;;
77826;SDS011;67016;42.508;25.678;2023-04-03T07:31:08;1.88;;;1.00;;
77826;SDS011;67016;42.508;25.678;2023-04-03T07:33:37;1.02;;;0.95;;
77826;SDS011;67016;42.508;25.678;2023-04-03T07:36:03;1.55;;;1.20;;
77826;SDS011;67016;42.508;25.678;2023-04-03T07:38:32;6.55;;;4.38;;
77826;SDS011;67016;42.508;25.678;2023-04-03T07:40:57;34.95;;;20.10;;
77826;SDS011;67016;42.508;25.678;2023-04-03T07:43:23;1.92;;;1.55;;
77826;SDS011;67016;42.508;25.678;2023-04-03T07:45:50;1.10;;;1.00;;
77826;SDS011;67016;42.508;25.678;2023-04-03T07:48:19;6.68;;;2.70;;
77826;SDS011;67016;42.508;25.678;2023-04-03T07:50:46;29.52;;;14.27;;
77826;SDS011;67016;42.508;25.678;2023-04-03T07:53:12;26.60;;;14.00;;
77826;SDS011;67016;42.508;25.678;2023-04-03T07:55:39;3.70;;;1.00;;
77826;SDS011;67016;42.508;25.678;2023-04-03T07:58:11;0.80;;;0.80;;
77826;SDS011;67016;42.508;25.678;2023-04-03T08:00:39;0.95;;;0.80;;
77826;SDS011;67016;42.508;25.678;2023-04-03T08:03:05;0.65;;;0.65;;
77826;SDS011;67016;42.508;25.678;2023-04-03T08:05:31;1.42;;;0.85;;
77826;SDS011;67016;42.508;25.678;2023-04-03T08:08:01;7.10;;;4.07;;
77826;SDS011;67016;42.508;25.678;2023-04-03T08:10:26;10.07;;;5.13;;
77826;SDS011;67016;42.508;25.678;2023-04-03T08:12:52;1.45;;;0.95;;
77826;SDS011;67016;42.508;25.678;2023-04-03T08:15:18;1.92;;;1.45;;
77826;SDS011;67016;42.508;25.678;2023-04-03T08:17:43;1.63;;;1.00;;
77826;SDS011;67016;42.508;25.678;2023-04-03T08:20:09;2.50;;;0.95;;
77826;SDS011;67016;42.508;25.678;2023-04-03T08:22:36;1.50;;;1.10;;
77826;SDS011;67016;42.508;25.678;2023-04-03T08:25:02;1.27;;;1.00;;
77826;SDS011;67016;42.508;25.678;2023-04-03T08:27:28;2.85;;;1.00;;
77826;SDS011;67016;42.508;25.678;2023-04-03T08:29:54;1.88;;;1.13;;
77826;SDS011;67016;42.508;25.678;2023-04-03T08:32:20;1.35;;;1.02;;
77826;SDS011;67016;42.508;25.678;2023-04-03T08:34:46;1.50;;;1.05;;
77826;SDS011;67016;42.508;25.678;2023-04-03T08:37:12;1.40;;;1.00;;
77826;SDS011;67016;42.508;25.678;2023-04-03T08:39:37;1.05;;;0.95;;
77826;SDS011;67016;42.508;25.678;2023-04-03T08:42:05;1.17;;;1.08;;
77826;SDS011;67016;42.508;25.678;2023-04-03T08:45:15;1.48;;;0.85;;
77826;SDS011;67016;42.508;25.678;2023-04-03T08:48:05;1.70;;;1.00;;
77826;SDS011;67016;42.508;25.678;2023-04-03T08:50:48;1.55;;;1.00;;
77826;SDS011;67016;42.508;25.678;2023-04-03T08:53:23;3.15;;;1.50;;
77826;SDS011;67016;42.508;25.678;2023-04-03T08:55:53;4.10;;;1.17;;
77826;SDS011;67016;42.508;25.678;2023-04-03T08:58:30;2.08;;;1.27;;
77826;SDS011;67016;42.508;25.678;2023-04-03T09:01:02;2.17;;;1.40;;
77826;SDS011;67016;42.508;25.678;2023-04-03T09:03:32;1.67;;;1.15;;
77826;SDS011;67016;42.508;25.678;2023-04-03T09:06:04;2.55;;;1.00;;
77826;SDS011;67016;42.508;25.678;2023-04-03T09:13:44;1.00;;;0.90;;
77826;SDS011;67016;42.508;25.678;2023-04-03T09:16:33;2.00;;;1.15;;
77826;SDS011;67016;42.508;25.678;2023-04-03T09:22:07;2.25;;;0.90;;
77826;SDS011;67016;42.508;25.678;2023-04-03T09:24:46;2.15;;;1.10;;
77826;SDS011;67016;42.508;25.678;2023-04-03T09:27:15;3.17;;;1.00;;
77826;SDS011;67016;42.508;25.678;2023-04-03T09:29:42;2.88;;;1.20;;
77826;SDS011;67016;42.508;25.678;2023-04-03T09:34:44;1.23;;;1.05;;
77826;SDS011;67016;42.508;25.678;2023-04-03T09:37:10;1.30;;;1.20;;
77826;SDS011;67016;42.508;25.678;2023-04-03T09:40:04;1.58;;;1.25;;
77826;SDS011;67016;42.508;25.678;2023-04-03T09:42:31;2.28;;;1.58;;
77826;SDS011;67016;42.508;25.678;2023-04-03T09:45:01;1.98;;;1.10;;
77826;SDS011;67016;42.508;25.678;2023-04-03T09:52:40;4.72;;;2.38;;
77826;SDS011;67016;42.508;25.678;2023-04-03T09:55:08;3.53;;;2.40;;
77826;SDS011;67016;42.508;25.678;2023-04-03T09:57:40;2.88;;;1.40;;
77826;SDS011;67016;42.508;25.678;2023-04-03T10:00:06;1.85;;;1.10;;
77826;SDS011;67016;42.508;25.678;2023-04-03T10:02:52;2.28;;;0.90;;
77826;SDS011;67016;42.508;25.678;2023-04-03T10:05:33;2.97;;;1.10;;
77826;SDS011;67016;42.508;25.678;2023-04-03T10:08:42;1.52;;;1.27;;
77826;SDS011;67016;42.508;25.678;2023-04-03T10:11:33;1.98;;;1.17;;
77826;SDS011;67016;42.508;25.678;2023-04-03T10:13:51;2.13;;;1.48;;
77826;SDS011;67016;42.508;25.678;2023-04-03T10:16:26;2.95;;;1.40;;
77826;SDS011;67016;42.508;25.678;2023-04-03T10:25:04;5.88;;;1.45;;
77826;SDS011;67016;42.508;25.678;2023-04-03T10:30:29;4.35;;;1.20;;
77826;SDS011;67016;42.508;25.678;2023-04-03T10:36:25;1.55;;;1.00;;
77826;SDS011;67016;42.508;25.678;2023-04-03T10:39:11;1.30;;;1.10;;
77826;SDS011;67016;42.508;25.678;2023-04-03T10:42:03;2.05;;;1.10;;
77826;SDS011;67016;42.508;25.678;2023-04-03T10:44:40;1.50;;;1.10;;
77826;SDS011;67016;42.508;25.678;2023-04-03T10:47:20;1.55;;;0.93;;
77826;SDS011;67016;42.508;25.678;2023-04-03T10:50:08;3.17;;;1.13;;
77826;SDS011;67016;42.508;25.678;2023-04-03T10:52:47;1.35;;;1.25;;
77826;SDS011;67016;42.508;25.678;2023-04-03T10:57:52;2.40;;;1.27;;
77826;SDS011;67016;42.508;25.678;2023-04-03T11:00:21;1.92;;;1.40;;
77826;SDS011;67016;42.508;25.678;2023-04-03T11:02:53;3.72;;;1.58;;
77826;SDS011;67016;42.508;25.678;2023-04-03T11:05:37;2.67;;;1.88;;
77826;SDS011;67016;42.508;25.678;2023-04-03T11:11:19;4.93;;;1.63;;
77826;SDS011;67016;42.508;25.678;2023-04-03T11:16:18;4.65;;;1.65;;
77826;SDS011;67016;42.508;25.678;2023-04-03T11:18:54;4.50;;;1.45;;
77826;SDS011;67016;42.508;25.678;2023-04-03T11:23:59;5.18;;;2.30;;
77826;SDS011;67016;42.508;25.678;2023-04-03T11:26:29;2.72;;;1.88;;
77826;SDS011;67016;42.508;25.678;2023-04-03T11:29:07;5.17;;;2.00;;
77826;SDS011;67016;42.508;25.678;2023-04-03T11:37:01;3.25;;;1.95;;
77826;SDS011;67016;42.508;25.678;2023-04-03T11:39:34;5.07;;;1.90;;
77826;SDS011;67016;42.508;25.678;2023-04-03T11:42:13;3.40;;;1.92;;
77826;SDS011;67016;42.508;25.678;2023-04-03T11:44:40;3.03;;;1.73;;
77826;SDS011;67016;42.508;25.678;2023-04-03T11:47:09;3.85;;;1.90;;
77826;SDS011;67016;42.508;25.678;2023-04-03T11:49:50;5.30;;;2.30;;
77826;SDS011;67016;42.508;25.678;2023-04-03T12:01:12;7.93;;;2.75;;
77826;SDS011;67016;42.508;25.678;2023-04-03T12:04:17;4.03;;;2.55;;
77826;SDS011;67016;42.508;25.678;2023-04-03T12:12:01;5.50;;;3.10;;
77826;SDS011;67016;42.508;25.678;2023-04-03T12:15:23;7.85;;;4.30;;
77826;SDS011;67016;42.508;25.678;2023-04-03T12:21:00;8.95;;;4.72;;
77826;SDS011;67016;42.508;25.678;2023-04-03T12:23:59;9.18;;;4.47;;
77826;SDS011;67016;42.508;25.678;2023-04-03T12:27:01;7.85;;;4.57;;
77826;SDS011;67016;42.508;25.678;2023-04-03T12:32:46;11.38;;;5.05;;
77826;SDS011;67016;42.508;25.678;2023-04-03T12:46:59;20.55;;;7.50;;
77826;SDS011;67016;42.508;25.678;2023-04-03T12:49:40;19.48;;;8.80;;
77826;SDS011;67016;42.508;25.678;2023-04-03T12:54:55;18.70;;;9.68;;
77826;SDS011;67016;42.508;25.678;2023-04-03T12:57:29;20.95;;;9.35;;
77826;SDS011;67016;42.508;25.678;2023-04-03T13:00:04;26.35;;;10.82;;
77826;SDS011;67016;42.508;25.678;2023-04-03T13:02:56;19.40;;;10.57;;
77826;SDS011;67016;42.508;25.678;2023-04-03T13:05:23;23.88;;;10.57;;
77826;SDS011;67016;42.508;25.678;2023-04-03T13:08:23;23.75;;;11.05;;
77826;SDS011;67016;42.508;25.678;2023-04-03T13:10:47;21.77;;;10.35;;
77826;SDS011;67016;42.508;25.678;2023-04-03T13:13:16;23.50;;;10.10;;
77826;SDS011;67016;42.508;25.678;2023-04-03T13:16:10;21.45;;;9.90;;
77826;SDS011;67016;42.508;25.678;2023-04-03T13:18:41;18.20;;;8.10;;
77826;SDS011;67016;42.508;25.678;2023-04-03T13:21:15;18.90;;;9.27;;
77826;SDS011;67016;42.508;25.678;2023-04-03T13:23:52;14.57;;;8.68;;
77826;SDS011;67016;42.508;25.678;2023-04-03T13:28:48;15.68;;;9.18;;
77826;SDS011;67016;42.508;25.678;2023-04-03T13:34:15;19.30;;;9.60;;
77826;SDS011;67016;42.508;25.678;2023-04-03T13:36:44;22.38;;;10.40;;
77826;SDS011;67016;42.508;25.678;2023-04-03T13:41:43;16.10;;;9.82;;
77826;SDS011;67016;42.508;25.678;2023-04-03T13:49:21;19.38;;;9.43;;
77826;SDS011;67016;42.508;25.678;2023-04-03T13:51:52;21.80;;;9.90;;
77826;SDS011;67016;42.508;25.678;2023-04-03T13:54:34;20.13;;;9.57;;
77826;SDS011;67016;42.508;25.678;2023-04-03T13:57:03;17.35;;;9.13;;
77826;SDS011;67016;42.508;25.678;2023-04-03T13:59:38;19.65;;;9.45;;
77826;SDS011;67016;42.508;25.678;2023-04-03T14:04:45;17.30;;;10.25;;
77826;SDS011;67016;42.508;25.678;2023-04-03T14:07:18;18.92;;;9.75;;
77826;SDS011;67016;42.508;25.678;2023-04-03T14:09:46;15.82;;;9.52;;
77826;SDS011;67016;42.508;25.678;2023-04-03T14:12:17;15.23;;;9.70;;
77826;SDS011;67016;42.508;25.678;2023-04-03T14:14:44;19.83;;;10.07;;
77826;SDS011;67016;42.508;25.678;2023-04-03T14:17:14;15.70;;;8.02;;
77826;SDS011;67016;42.508;25.678;2023-04-03T14:19:49;17.98;;;8.50;;
77826;SDS011;67016;42.508;25.678;2023-04-03T14:22:16;17.05;;;8.98;;
77826;SDS011;67016;42.508;25.678;2023-04-03T14:24:53;18.38;;;9.23;;
77826;SDS011;67016;42.508;25.678;2023-04-03T14:27:30;16.48;;;7.70;;
77826;SDS011;67016;42.508;25.678;2023-04-03T14:32:26;9.43;;;5.95;;
77826;SDS011;67016;42.508;25.678;2023-04-03T14:34:52;12.02;;;5.90;;
77826;SDS011;67016;42.508;25.678;2023-04-03T14:37:22;12.23;;;6.53;;
77826;SDS011;67016;42.508;25.678;2023-04-03T14:42:16;13.90;;;8.27;;
77826;SDS011;67016;42.508;25.678;2023-04-03T14:44:44;10.25;;;6.60;;
77826;SDS011;67016;42.508;25.678;2023-04-03T14:47:13;19.65;;;12.45;;
77826;SDS011;67016;42.508;25.678;2023-04-03T14:49:47;12.88;;;5.55;;
77826;SDS011;67016;42.508;25.678;2023-04-03T14:52:23;11.48;;;6.18;;
77826;SDS011;67016;42.508;25.678;2023-04-03T14:54:52;9.82;;;5.60;;
77826;SDS011;67016;42.508;25.678;2023-04-03T14:57:18;9.80;;;6.00;;
77826;SDS011;67016;42.508;25.678;2023-04-03T14:59:45;10.63;;;5.68;;
77826;SDS011;67016;42.508;25.678;2023-04-03T15:04:54;6.72;;;4.10;;
77826;SDS011;67016;42.508;25.678;2023-04-03T15:07:20;8.38;;;5.30;;
77826;SDS011;67016;42.508;25.678;2023-04-03T15:09:46;9.18;;;4.60;;
77826;SDS011;67016;42.508;25.678;2023-04-03T15:12:12;4.60;;;3.08;;
77826;SDS011;67016;42.508;25.678;2023-04-03T15:14:37;5.32;;;3.13;;
77826;SDS011;67016;42.508;25.678;2023-04-03T15:17:04;7.72;;;4.25;;
77826;SDS011;67016;42.508;25.678;2023-04-03T15:19:35;4.28;;;3.55;;
77826;SDS011;67016;42.508;25.678;2023-04-03T15:22:02;4.35;;;2.83;;
77826;SDS011;67016;42.508;25.678;2023-04-03T15:24:28;7.82;;;4.75;;
77826;SDS011;67016;42.508;25.678;2023-04-03T15:26:54;3.05;;;2.67;;
77826;SDS011;67016;42.508;25.678;2023-04-03T15:29:19;5.13;;;3.67;;
77826;SDS011;67016;42.508;25.678;2023-04-03T15:31:45;6.45;;;4.30;;
77826;SDS011;67016;42.508;25.678;2023-04-03T15:34:11;5.80;;;2.80;;
77826;SDS011;67016;42.508;25.678;2023-04-03T15:36:37;3.47;;;2.92;;
77826;SDS011;67016;42.508;25.678;2023-04-03T15:39:02;3.13;;;2.45;;
77826;SDS011;67016;42.508;25.678;2023-04-03T15:41:28;4.93;;;3.10;;
77826;SDS011;67016;42.508;25.678;2023-04-03T15:43:54;3.53;;;2.42;;
77826;SDS011;67016;42.508;25.678;2023-04-03T15:46:20;2.60;;;2.00;;
77826;SDS011;67016;42.508;25.678;2023-04-03T15:48:45;4.25;;;1.88;;
77826;SDS011;67016;42.508;25.678;2023-04-03T15:51:11;6.75;;;4.63;;
77826;SDS011;67016;42.508;25.678;2023-04-03T15:53:37;2.28;;;1.60;;
77826;SDS011;67016;42.508;25.678;2023-04-03T15:56:02;5.07;;;1.88;;
77826;SDS011;67016;42.508;25.678;2023-04-03T15:58:29;2.40;;;1.73;;
77826;SDS011;67016;42.508;25.678;2023-04-03T16:00:55;2.55;;;1.55;;
77826;SDS011;67016;42.508;25.678;2023-04-03T16:03:21;2.65;;;1.70;;
77826;SDS011;67016;42.508;25.678;2023-04-03T16:05:49;7.25;;;2.92;;
77826;SDS011;67016;42.508;25.678;2023-04-03T16:08:15;4.88;;;2.28;;
77826;SDS011;67016;42.508;25.678;2023-04-03T16:10:42;3.75;;;2.08;;
77826;SDS011;67016;42.508;25.678;2023-04-03T16:13:10;5.35;;;3.92;;
77826;SDS011;67016;42.508;25.678;2023-04-03T16:15:36;2.33;;;1.98;;
77826;SDS011;67016;42.508;25.678;2023-04-03T16:18:02;5.05;;;2.90;;
77826;SDS011;67016;42.508;25.678;2023-04-03T16:20:28;4.57;;;2.30;;
77826;SDS011;67016;42.508;25.678;2023-04-03T16:22:55;3.83;;;3.05;;
77826;SDS011;67016;42.508;25.678;2023-04-03T16:25:22;7.03;;;3.25;;
77826;SDS011;67016;42.508;25.678;2023-04-03T16:27:47;6.65;;;5.03;;
77826;SDS011;67016;42.508;25.678;2023-04-03T16:30:13;6.50;;;4.22;;
77826;SDS011;67016;42.508;25.678;2023-04-03T16:32:39;8.93;;;5.05;;
77826;SDS011;67016;42.508;25.678;2023-04-03T16:35:05;10.85;;;7.38;;